createdAt,value
2022-09-12T00:01:19.454Z,81.30
2022-09-12T00:03:47.504Z,81.10
2022-09-12T00:06:25.264Z,83.70
2022-09-12T00:08:56.009Z,81.70
2022-09-12T00:11:27.212Z,81.80
2022-09-12T00:14:01.940Z,81.30
2022-09-12T00:16:34.625Z,83.70
2022-09-12T00:19:03.986Z,81.80
2022-09-12T00:21:34.703Z,81.90
2022-09-12T00:24:02.687Z,81.70
2022-09-12T00:26:31.779Z,82.30
2022-09-12T00:28:59.210Z,82.10
2022-09-12T00:31:27.620Z,84.10
2022-09-12T00:33:57.758Z,82.40
2022-09-12T00:36:26.244Z,82.80
2022-09-12T00:38:54.823Z,82.00
2022-09-12T00:41:25.236Z,83.40
2022-09-12T00:44:17.725Z,81.90
2022-09-12T00:46:48.766Z,82.00
2022-09-12T00:49:29.155Z,82.70
2022-09-12T00:52:06.622Z,82.00
2022-09-12T00:54:51.860Z,81.20
2022-09-12T00:57:23.413Z,85.20
2022-09-12T00:59:59.654Z,83.80
2022-09-12T01:02:28.042Z,82.80
2022-09-12T01:04:56.086Z,83.80
2022-09-12T01:07:25.687Z,83.20
2022-09-12T01:09:53.468Z,84.40
2022-09-12T01:12:22.252Z,85.10
2022-09-12T01:14:49.677Z,84.40
2022-09-12T01:17:17.162Z,84.20
2022-09-12T01:20:15.603Z,84.80
2022-09-12T01:23:09.268Z,82.90
2022-09-12T01:26:19.614Z,82.40
2022-09-12T01:28:46.922Z,82.50
2022-09-12T01:31:21.762Z,83.40
2022-09-12T01:34:13.281Z,82.40
2022-09-12T01:36:50.920Z,83.70
2022-09-12T01:39:31.210Z,82.70
2022-09-12T01:42:04.720Z,82.80
2022-09-12T01:44:49.943Z,83.30
2022-09-12T01:47:36.045Z,82.80
2022-09-12T01:50:19.545Z,83.80
2022-09-12T01:53:05.153Z,82.90
2022-09-12T01:55:38.201Z,83.00
2022-09-12T01:58:30.667Z,83.00
2022-09-12T02:01:11.140Z,83.00
2022-09-12T02:03:46.563Z,83.50
2022-09-12T02:06:35.232Z,83.20
2022-09-12T02:09:12.811Z,82.40
2022-09-12T02:11:43.638Z,83.20
2022-09-12T02:14:29.056Z,83.30
2022-09-12T02:17:02.527Z,83.50
2022-09-12T02:19:52.168Z,83.40
2022-09-12T02:22:22.740Z,83.80
2022-09-12T02:24:54.704Z,84.30
2022-09-12T02:27:27.709Z,83.90
2022-09-12T02:29:55.645Z,84.20
2022-09-12T02:32:50.195Z,85.90
2022-09-12T02:35:31.579Z,83.80
2022-09-12T02:38:05.613Z,83.50
2022-09-12T02:40:33.949Z,85.70
2022-09-12T02:43:03.120Z,84.40
2022-09-12T02:45:34.253Z,84.10
2022-09-12T02:48:19.366Z,84.50
2022-09-12T02:50:47.245Z,85.30
2022-09-12T02:53:15.372Z,84.30
2022-09-12T02:55:43.852Z,84.50
2022-09-12T02:58:16.023Z,85.70
2022-09-12T03:01:14.587Z,84.60
2022-09-12T03:04:09.940Z,85.10
2022-09-12T03:06:44.840Z,84.10
2022-09-12T03:09:39.810Z,84.90
2022-09-12T03:12:26.084Z,84.00
2022-09-12T03:15:01.690Z,84.10
2022-09-12T03:17:35.431Z,85.30
2022-09-12T03:20:25.213Z,84.90
2022-09-12T03:23:06.681Z,84.30
2022-09-12T03:25:46.076Z,84.20
2022-09-12T03:28:19.017Z,84.40
2022-09-12T03:30:48.571Z,85.00
2022-09-12T03:33:24.682Z,84.80
2022-09-12T03:35:53.100Z,84.40
2022-09-12T03:38:21.823Z,84.40
2022-09-12T03:40:54.050Z,85.70
2022-09-12T03:43:22.169Z,88.00
2022-09-12T03:45:53.419Z,86.10
2022-09-12T03:48:21.305Z,85.00
2022-09-12T03:50:48.630Z,85.70
2022-09-12T03:53:17.410Z,84.60
2022-09-12T03:55:45.193Z,84.90
2022-09-12T03:58:12.629Z,85.20
2022-09-12T04:00:40.961Z,85.50
2022-09-12T04:03:09.154Z,85.60
2022-09-12T04:05:36.660Z,86.10
2022-09-12T04:08:04.073Z,86.30
2022-09-12T04:10:32.239Z,89.00
2022-09-12T04:12:59.739Z,90.20
2022-09-12T04:15:29.375Z,90.00
2022-09-12T04:17:56.791Z,86.80
2022-09-12T04:20:24.615Z,87.00
2022-09-12T04:22:52.160Z,87.60
2022-09-12T04:25:19.558Z,90.30
2022-09-12T04:27:50.778Z,87.30
2022-09-12T04:30:18.325Z,89.20
2022-09-12T04:32:45.868Z,88.70
2022-09-12T04:35:14.054Z,90.60
2022-09-12T04:37:41.532Z,89.20
2022-09-12T04:40:09.443Z,89.20
2022-09-12T04:42:38.377Z,86.60
2022-09-12T04:45:06.469Z,90.20
2022-09-12T04:47:44.487Z,85.80
2022-09-12T04:50:11.966Z,85.70
2022-09-12T04:52:39.603Z,88.20
2022-09-12T04:55:11.049Z,88.60
2022-09-12T04:57:38.481Z,86.20
2022-09-12T05:00:07.422Z,87.30
2022-09-12T05:02:35.090Z,85.90
2022-09-12T05:05:07.865Z,86.90
2022-09-12T05:07:35.809Z,88.50
2022-09-12T05:10:07.009Z,90.80
2022-09-12T05:12:34.516Z,87.60
2022-09-12T05:15:02.155Z,87.80
2022-09-12T05:17:30.151Z,89.80
2022-09-12T05:19:57.749Z,87.90
2022-09-12T05:22:25.229Z,87.90
2022-09-12T05:24:53.976Z,88.70
2022-09-12T05:27:21.555Z,86.70
2022-09-12T05:29:48.948Z,89.10
2022-09-12T05:32:16.317Z,88.70
2022-09-12T05:34:43.820Z,86.60
2022-09-12T05:37:12.407Z,88.40
2022-09-12T05:39:40.107Z,87.50
2022-09-12T05:42:07.624Z,87.30
2022-09-12T05:44:35.046Z,88.40
2022-09-12T05:47:02.431Z,87.80
2022-09-12T05:49:30.179Z,87.90
2022-09-12T05:51:57.691Z,86.10
2022-09-12T05:54:28.309Z,89.40
2022-09-12T05:57:01.774Z,88.00
2022-09-12T05:59:29.403Z,90.70
2022-09-12T06:01:56.905Z,90.60
2022-09-12T06:04:25.445Z,89.20
2022-09-12T06:06:53.005Z,88.80
2022-09-12T06:09:20.671Z,89.60
2022-09-12T06:11:48.226Z,89.70
2022-09-12T06:14:19.520Z,90.40
2022-09-12T06:16:47.590Z,88.10
2022-09-12T06:19:19.860Z,89.60
2022-09-12T06:21:49.718Z,87.10
2022-09-12T06:24:18.269Z,87.60
2022-09-12T06:26:46.347Z,86.90
2022-09-12T06:29:14.491Z,87.90
2022-09-12T06:31:44.518Z,87.00
2022-09-12T06:34:14.755Z,86.70
2022-09-12T06:36:45.171Z,86.60
2022-09-12T06:39:48.144Z,86.90
2022-09-12T06:42:15.642Z,88.20
2022-09-12T06:45:02.998Z,88.70
2022-09-12T06:47:30.302Z,88.40
2022-09-12T06:49:57.792Z,86.70
2022-09-12T06:52:29.176Z,88.60
2022-09-12T06:54:56.731Z,89.20
2022-09-12T06:57:28.120Z,90.30
2022-09-12T07:00:06.252Z,89.60
2022-09-12T07:02:33.730Z,88.20
2022-09-12T07:05:01.243Z,88.60
2022-09-12T07:07:28.693Z,88.00
2022-09-12T07:09:57.701Z,89.60
2022-09-12T07:12:25.275Z,87.20
2022-09-12T07:14:52.706Z,88.70
2022-09-12T07:17:20.446Z,88.20
2022-09-12T07:19:47.833Z,88.90
2022-09-12T07:22:15.270Z,88.50
2022-09-12T07:24:42.729Z,88.70
2022-09-12T07:27:10.097Z,87.30
2022-09-12T07:29:38.157Z,87.30
2022-09-12T07:32:06.689Z,90.20
2022-09-12T07:34:35.174Z,89.50
2022-09-12T07:37:02.797Z,87.10
2022-09-12T07:39:30.361Z,89.40
2022-09-12T07:42:00.710Z,90.90
2022-09-12T07:44:30.703Z,89.40
2022-09-12T07:46:58.198Z,89.60
2022-09-12T07:49:25.647Z,89.50
2022-09-12T07:51:53.870Z,89.30
2022-09-12T07:54:22.725Z,88.00
2022-09-12T07:56:50.100Z,88.00
2022-09-12T07:59:35.291Z,87.80
2022-09-12T08:02:05.422Z,86.60
2022-09-12T08:04:34.220Z,86.90
2022-09-12T08:07:01.787Z,87.80
2022-09-12T08:09:29.227Z,88.90
2022-09-12T08:11:56.629Z,87.90
2022-09-12T08:14:24.371Z,87.90
2022-09-12T08:16:52.136Z,89.30
2022-09-12T08:19:19.826Z,86.90
2022-09-12T08:21:49.614Z,88.90
2022-09-12T08:24:17.273Z,87.00
2022-09-12T08:26:44.872Z,86.20
2022-09-12T08:29:16.883Z,86.90
2022-09-12T08:31:44.441Z,89.80
2022-09-12T08:34:12.021Z,86.10
2022-09-12T08:36:39.568Z,85.00
2022-09-12T08:39:07.963Z,88.00
2022-09-12T08:41:41.188Z,86.30
2022-09-12T08:44:09.356Z,83.80
2022-09-12T08:47:01.531Z,85.60
2022-09-12T08:49:44.092Z,82.20
2022-09-12T08:52:22.388Z,81.60
2022-09-12T08:54:52.174Z,81.40
2022-09-12T08:57:20.105Z,82.90
2022-09-12T08:59:48.414Z,82.50
2022-09-12T09:02:39.171Z,82.90
2022-09-12T09:05:26.774Z,82.70
2022-09-12T09:08:11.248Z,80.90
2022-09-12T09:11:08.813Z,81.20
2022-09-12T09:14:05.362Z,80.90
2022-09-12T09:16:39.844Z,80.60
2022-09-12T09:19:37.523Z,80.60
2022-09-12T09:22:11.965Z,80.30
2022-09-12T09:24:46.008Z,80.10
2022-09-12T09:27:40.982Z,79.90
2022-09-12T09:30:19.038Z,79.50
2022-09-12T09:32:54.179Z,79.30
2022-09-12T09:35:38.972Z,79.30
2022-09-12T09:38:15.754Z,78.80
2022-09-12T09:40:52.926Z,80.10
2022-09-12T09:43:27.525Z,78.30
2022-09-12T09:45:56.552Z,78.40
2022-09-12T09:48:33.819Z,78.30
2022-09-12T09:51:05.127Z,77.60
2022-09-12T09:53:48.646Z,77.80
2022-09-12T09:56:27.631Z,77.70
2022-09-12T09:58:55.468Z,77.70
2022-09-12T10:01:23.613Z,78.90
2022-09-12T10:03:55.501Z,77.60
2022-09-12T10:06:46.050Z,75.80
2022-09-12T10:10:03.964Z,75.70
2022-09-12T10:12:31.633Z,76.50
2022-09-12T10:15:02.470Z,76.90
2022-09-12T10:17:43.421Z,75.30
2022-09-12T10:20:31.093Z,76.40
2022-09-12T10:23:00.889Z,74.40
2022-09-12T10:25:28.847Z,75.60
2022-09-12T10:28:02.558Z,73.90
2022-09-12T10:30:30.153Z,73.20
2022-09-12T10:33:08.146Z,74.90
2022-09-12T10:35:48.630Z,73.60
2022-09-12T10:38:27.335Z,74.40
2022-09-12T10:41:07.395Z,72.20
2022-09-12T10:43:37.883Z,71.80
2022-09-12T10:46:29.354Z,73.00
2022-09-12T10:49:19.075Z,72.20
2022-09-12T10:51:46.398Z,72.40
2022-09-12T10:54:21.329Z,72.40
2022-09-12T10:57:10.327Z,72.60
2022-09-12T11:00:15.918Z,70.60
2022-09-12T11:03:34.530Z,69.90
2022-09-12T11:06:02.002Z,70.20
2022-09-12T11:08:51.608Z,70.40
2022-09-12T11:11:56.594Z,68.90
2022-09-12T11:14:39.422Z,70.00
2022-09-12T11:17:14.541Z,68.80
2022-09-12T11:19:41.833Z,68.80
2022-09-12T11:22:31.725Z,68.40
2022-09-12T11:25:27.864Z,68.30
2022-09-12T11:28:47.493Z,67.40
2022-09-12T11:31:23.871Z,67.70
2022-09-12T11:33:56.522Z,67.40
2022-09-12T11:36:36.949Z,67.40
2022-09-12T11:39:28.691Z,66.30
2022-09-12T11:42:00.641Z,65.60
2022-09-12T11:44:40.227Z,65.50
2022-09-12T11:47:12.432Z,65.40
2022-09-12T11:49:50.121Z,65.60
2022-09-12T11:52:29.275Z,64.90
2022-09-12T11:55:05.158Z,64.40
2022-09-12T11:58:01.846Z,64.90
2022-09-12T12:00:36.220Z,65.00
2022-09-12T12:03:11.955Z,65.20
2022-09-12T12:05:53.484Z,65.10
2022-09-12T12:08:27.684Z,65.00
2022-09-12T12:10:56.475Z,64.60
2022-09-12T12:13:23.763Z,66.70
2022-09-12T12:16:05.015Z,65.60
2022-09-12T12:18:36.151Z,65.20
2022-09-12T12:21:28.525Z,64.70
2022-09-12T12:24:08.091Z,63.60
2022-09-12T12:26:41.551Z,65.00
2022-09-12T12:29:19.496Z,65.60
2022-09-12T12:31:59.321Z,65.30
2022-09-12T12:34:38.595Z,63.20
2022-09-12T12:37:29.673Z,62.90
2022-09-12T12:40:08.731Z,61.80
2022-09-12T12:42:36.129Z,61.80
2022-09-12T12:45:09.601Z,62.10
2022-09-12T12:47:44.411Z,61.40
2022-09-12T12:50:19.625Z,61.10
2022-09-12T12:52:55.659Z,60.70
2022-09-12T12:55:42.710Z,60.30
2022-09-12T12:58:24.246Z,60.30
2022-09-12T13:01:10.163Z,61.30
2022-09-12T13:03:40.897Z,59.40
2022-09-12T13:06:21.856Z,59.50
2022-09-12T13:09:00.195Z,59.80
2022-09-12T13:11:31.989Z,59.00
2022-09-12T13:14:03.131Z,60.00
2022-09-12T13:16:39.371Z,59.20
2022-09-12T13:19:19.271Z,58.50
2022-09-12T13:22:16.099Z,58.20
2022-09-12T13:24:57.061Z,58.40
2022-09-12T13:27:25.708Z,57.90
2022-09-12T13:30:13.654Z,58.30
2022-09-12T13:32:43.816Z,57.90
2022-09-12T13:35:34.220Z,58.40
2022-09-12T13:38:14.925Z,56.80
2022-09-12T13:41:14.038Z,56.60
2022-09-12T13:43:49.320Z,56.00
2022-09-12T13:46:26.361Z,55.90
2022-09-12T13:48:54.345Z,56.30
2022-09-12T13:51:26.125Z,57.20
2022-09-12T13:53:58.135Z,56.30
2022-09-12T13:56:26.009Z,55.70
2022-09-12T13:58:56.385Z,55.50
2022-09-12T14:01:36.885Z,56.40
2022-09-12T14:04:35.496Z,55.50
2022-09-12T14:07:14.792Z,55.10
2022-09-12T14:09:45.257Z,55.60
2022-09-12T14:12:34.005Z,55.30
2022-09-12T14:15:01.744Z,55.00
2022-09-12T14:17:36.104Z,55.10
2022-09-12T14:20:11.877Z,54.90
2022-09-12T14:22:41.492Z,54.80
2022-09-12T14:25:22.627Z,55.10
2022-09-12T14:27:57.166Z,54.60
2022-09-12T14:30:26.143Z,55.70
2022-09-12T14:33:03.697Z,55.10
2022-09-12T14:35:32.575Z,55.20
2022-09-12T14:38:08.793Z,55.60
2022-09-12T14:40:46.238Z,55.00
2022-09-12T14:43:32.493Z,54.10
2022-09-12T14:46:03.892Z,53.60
2022-09-12T14:48:43.389Z,53.90
2022-09-12T14:51:20.912Z,54.00
2022-09-12T14:53:49.864Z,53.60
2022-09-12T14:56:20.494Z,55.30
2022-09-12T14:58:48.928Z,53.60
2022-09-12T15:01:25.802Z,55.50
2022-09-12T15:03:55.831Z,54.60
2022-09-12T15:06:30.697Z,54.60
2022-09-12T15:09:02.257Z,53.70
2022-09-12T15:11:29.626Z,54.30
2022-09-12T15:13:57.180Z,55.50
2022-09-12T15:16:26.147Z,54.50
2022-09-12T15:18:53.874Z,56.90
2022-09-12T15:21:21.632Z,56.10
2022-09-12T15:23:53.953Z,55.70
2022-09-12T15:26:32.489Z,54.30
2022-09-12T15:29:15.477Z,54.90
2022-09-12T15:31:47.408Z,57.60
2022-09-12T15:34:15.577Z,54.30
2022-09-12T15:36:43.101Z,56.50
2022-09-12T15:39:12.102Z,54.40
2022-09-12T15:41:39.758Z,56.90
2022-09-12T15:44:10.937Z,54.90
2022-09-12T15:46:38.620Z,53.10
2022-09-12T15:49:09.313Z,53.90
2022-09-12T15:51:37.148Z,53.90
2022-09-12T15:54:04.942Z,55.10
2022-09-12T15:56:35.040Z,54.10
2022-09-12T15:59:02.668Z,53.80
2022-09-12T16:01:30.238Z,56.00
2022-09-12T16:04:03.282Z,57.10
2022-09-12T16:06:52.287Z,54.80
2022-09-12T16:09:21.668Z,55.50
2022-09-12T16:11:53.607Z,55.90
2022-09-12T16:14:23.824Z,55.60
2022-09-12T16:16:57.829Z,56.10
2022-09-12T16:19:25.606Z,58.90
2022-09-12T16:21:53.178Z,56.70
2022-09-12T16:24:20.676Z,56.50
2022-09-12T16:26:48.223Z,54.40
2022-09-12T16:29:15.894Z,55.00
2022-09-12T16:31:43.471Z,54.50
2022-09-12T16:34:11.171Z,55.10
2022-09-12T16:36:38.598Z,55.70
2022-09-12T16:39:07.488Z,54.80
2022-09-12T16:41:34.952Z,57.60
2022-09-12T16:44:02.702Z,55.60
2022-09-12T16:46:30.316Z,55.30
2022-09-12T16:49:00.179Z,55.10
2022-09-12T16:51:35.951Z,58.60
2022-09-12T16:54:06.052Z,54.60
2022-09-12T16:56:33.635Z,57.90
2022-09-12T16:59:01.447Z,57.20
2022-09-12T17:01:29.209Z,55.60
2022-09-12T17:03:59.753Z,57.50
2022-09-12T17:06:28.314Z,55.50
2022-09-12T17:09:00.830Z,56.10
2022-09-12T17:11:32.077Z,56.40
2022-09-12T17:14:05.363Z,56.20
2022-09-12T17:16:39.173Z,56.30
2022-09-12T17:19:07.692Z,56.60
2022-09-12T17:21:35.555Z,57.00
2022-09-12T17:24:03.815Z,57.00
2022-09-12T17:26:31.628Z,57.20
2022-09-12T17:28:59.193Z,57.50
2022-09-12T17:31:29.150Z,60.30
2022-09-12T17:33:59.468Z,59.50
2022-09-12T17:36:28.605Z,56.60
2022-09-12T17:39:16.502Z,57.20
2022-09-12T17:41:45.744Z,61.20
2022-09-12T17:44:15.278Z,59.30
2022-09-12T17:46:43.671Z,58.60
2022-09-12T17:49:14.081Z,58.20
2022-09-12T17:51:43.515Z,57.90
2022-09-12T17:54:15.691Z,58.40
2022-09-12T17:56:47.438Z,58.60
2022-09-12T17:59:21.491Z,58.80
2022-09-12T18:02:09.087Z,59.90
2022-09-12T18:04:37.452Z,59.50
2022-09-12T18:07:06.100Z,60.00
2022-09-12T18:09:33.626Z,61.80
2022-09-12T18:12:01.407Z,61.60
2022-09-12T18:14:29.011Z,61.40
2022-09-12T18:17:00.127Z,61.30
2022-09-12T18:19:28.353Z,60.00
2022-09-12T18:21:56.775Z,62.30
2022-09-12T18:24:26.667Z,61.60
2022-09-12T18:26:56.761Z,61.20
2022-09-12T18:29:25.022Z,61.20
2022-09-12T18:31:52.627Z,61.40
2022-09-12T18:34:20.495Z,61.90
2022-09-12T18:36:49.575Z,63.40
2022-09-12T18:39:18.181Z,62.20
2022-09-12T18:41:45.564Z,62.40
2022-09-12T18:44:13.246Z,62.90
2022-09-12T18:46:40.756Z,63.60
2022-09-12T18:49:09.383Z,63.00
2022-09-12T18:51:39.965Z,62.60
2022-09-12T18:54:12.473Z,62.90
2022-09-12T18:56:43.390Z,63.00
2022-09-12T18:59:14.000Z,63.10
2022-09-12T19:01:41.867Z,63.30
2022-09-12T19:04:11.261Z,63.60
2022-09-12T19:06:41.495Z,63.70
2022-09-12T19:09:10.731Z,64.00
2022-09-12T19:11:40.799Z,64.10
2022-09-12T19:14:08.456Z,64.50
2022-09-12T19:16:35.929Z,64.80
2022-09-12T19:19:04.028Z,65.60
2022-09-12T19:21:32.926Z,65.10
2022-09-12T19:24:03.560Z,65.20
2022-09-12T19:26:31.843Z,66.10
2022-09-12T19:29:00.079Z,65.40
2022-09-12T19:31:27.710Z,65.50
2022-09-12T19:34:02.817Z,66.60
2022-09-12T19:36:47.267Z,65.50
2022-09-12T19:39:16.769Z,65.70
2022-09-12T19:41:44.774Z,65.90
2022-09-12T19:44:12.422Z,66.10
2022-09-12T19:46:40.531Z,66.20
2022-09-12T19:49:09.466Z,67.10
2022-09-12T19:51:36.943Z,66.50
2022-09-12T19:54:04.421Z,68.10
2022-09-12T19:56:31.840Z,67.90
2022-09-12T19:58:59.373Z,67.50
2022-09-12T20:01:28.502Z,67.50
2022-09-12T20:03:57.462Z,67.30
2022-09-12T20:06:25.428Z,67.20
2022-09-12T20:08:53.165Z,67.30
2022-09-12T20:11:23.378Z,67.20
2022-09-12T20:13:51.637Z,67.30
2022-09-12T20:16:25.533Z,66.60
2022-09-12T20:18:59.978Z,68.60
2022-09-12T20:21:32.218Z,67.80
2022-09-12T20:24:01.865Z,67.20
2022-09-12T20:26:29.318Z,67.80
2022-09-12T20:28:56.915Z,68.20
2022-09-12T20:31:24.604Z,68.60
2022-09-12T20:33:52.308Z,68.70
2022-09-12T20:36:21.605Z,68.70
2022-09-12T20:38:54.249Z,68.40
2022-09-12T20:41:21.715Z,68.60
2022-09-12T20:43:54.072Z,68.90
2022-09-12T20:46:22.909Z,69.20
2022-09-12T20:48:51.219Z,69.10
2022-09-12T20:51:24.607Z,69.30
2022-09-12T20:53:55.836Z,69.30
2022-09-12T20:56:24.177Z,69.40
2022-09-12T20:58:51.749Z,69.60
2022-09-12T21:01:19.691Z,69.70
2022-09-12T21:03:47.276Z,69.70
2022-09-12T21:06:19.124Z,70.00
2022-09-12T21:08:48.460Z,70.00
2022-09-12T21:11:16.905Z,70.10
2022-09-12T21:13:44.595Z,70.10
2022-09-12T21:16:14.763Z,70.40
2022-09-12T21:18:42.798Z,70.40
2022-09-12T21:21:12.084Z,70.50
2022-09-12T21:23:39.862Z,70.60
2022-09-12T21:26:07.726Z,71.00
2022-09-12T21:28:35.473Z,71.00
2022-09-12T21:31:02.836Z,70.90
2022-09-12T21:33:30.238Z,69.90
2022-09-12T21:36:03.074Z,71.20
2022-09-12T21:38:31.022Z,71.30
2022-09-12T21:41:10.449Z,71.20
2022-09-12T21:43:39.172Z,71.40
2022-09-12T21:46:07.407Z,71.50
2022-09-12T21:48:35.078Z,71.50
2022-09-12T21:51:03.414Z,71.70
2022-09-12T21:53:31.163Z,71.70
2022-09-12T21:56:07.932Z,71.60
2022-09-12T21:58:36.019Z,72.20
2022-09-12T22:01:05.783Z,72.40
2022-09-12T22:03:33.380Z,72.40
2022-09-12T22:06:03.886Z,72.90
2022-09-12T22:08:33.578Z,72.30
2022-09-12T22:11:03.376Z,72.30
2022-09-12T22:13:32.172Z,73.30
2022-09-12T22:16:02.837Z,72.50
2022-09-12T22:18:33.197Z,72.40
2022-09-12T22:21:17.848Z,72.50
2022-09-12T22:24:03.804Z,72.60
2022-09-12T22:26:34.971Z,72.10
2022-09-12T22:29:02.310Z,72.50
2022-09-12T22:31:29.684Z,72.70
2022-09-12T22:33:59.647Z,72.80
2022-09-12T22:36:30.923Z,72.80
2022-09-12T22:38:59.436Z,73.00
2022-09-12T22:41:26.740Z,72.80
2022-09-12T22:43:54.037Z,72.70
2022-09-12T22:46:21.418Z,73.20
2022-09-12T22:48:48.958Z,73.40
2022-09-12T22:51:16.642Z,73.70
2022-09-12T22:53:44.200Z,73.30
2022-09-12T22:56:11.555Z,73.30
2022-09-12T22:58:39.018Z,75.00
2022-09-12T23:01:07.285Z,74.70
2022-09-12T23:03:35.343Z,73.50
2022-09-12T23:06:03.724Z,74.20
2022-09-12T23:08:31.083Z,73.70
2022-09-12T23:11:16.388Z,74.20
2022-09-12T23:13:45.884Z,73.60
2022-09-12T23:16:22.577Z,73.60
2022-09-12T23:18:50.319Z,73.80
2022-09-12T23:21:20.106Z,74.20
2022-09-12T23:23:47.885Z,74.00
2022-09-12T23:26:18.314Z,74.10
2022-09-12T23:28:52.843Z,74.00
2022-09-12T23:31:24.219Z,74.40
2022-09-12T23:33:55.791Z,74.40
2022-09-12T23:36:24.346Z,74.50
2022-09-12T23:38:52.181Z,74.60
2022-09-12T23:41:19.928Z,75.40
2022-09-12T23:43:47.343Z,75.30
2022-09-12T23:46:16.305Z,76.10
2022-09-12T23:48:44.125Z,75.90
2022-09-12T23:51:11.863Z,75.50
2022-09-12T23:53:39.964Z,75.50
2022-09-12T23:56:07.628Z,76.60
2022-09-12T23:58:35.018Z,75.60
